sensor_id;sensor_type;location;lat;lon;timestamp;temperature;humidity
10042;DHT22;5061;49.068;12.058;2023-04-25T00:02:20;7.90;99.90
10042;DHT22;5061;49.068;12.058;2023-04-25T00:05:40;7.80;99.90
10042;DHT22;5061;49.068;12.058;2023-04-25T00:09:02;7.80;99.90
10042;DHT22;5061;49.068;12.058;2023-04-25T00:12:23;7.80;99.90
10042;DHT22;5061;49.068;12.058;2023-04-25T00:15:44;7.80;99.90
10042;DHT22;5061;49.068;12.058;2023-04-25T00:19:07;7.80;99.90
10042;DHT22;5061;49.068;12.058;2023-04-25T00:22:27;7.80;99.90
10042;DHT22;5061;49.068;12.058;2023-04-25T00:25:49;7.80;99.90
10042;DHT22;5061;49.068;12.058;2023-04-25T00:29:09;7.80;99.90
10042;DHT22;5061;49.068;12.058;2023-04-25T00:32:30;7.80;99.90
10042;DHT22;5061;49.068;12.058;2023-04-25T00:35:51;7.80;99.90
10042;DHT22;5061;49.068;12.058;2023-04-25T00:39:12;7.70;99.90
10042;DHT22;5061;49.068;12.058;2023-04-25T00:42:33;7.70;99.90
10042;DHT22;5061;49.068;12.058;2023-04-25T00:45:54;7.80;99.90
10042;DHT22;5061;49.068;12.058;2023-04-25T00:49:16;7.80;99.90
10042;DHT22;5061;49.068;12.058;2023-04-25T00:52:41;7.70;99.90
10042;DHT22;5061;49.068;12.058;2023-04-25T00:56:03;7.70;99.90
10042;DHT22;5061;49.068;12.058;2023-04-25T00:59:25;7.70;99.90
10042;DHT22;5061;49.068;12.058;2023-04-25T01:02:46;7.70;99.90
10042;DHT22;5061;49.068;12.058;2023-04-25T01:06:08;7.70;99.90
10042;DHT22;5061;49.068;12.058;2023-04-25T01:09:30;7.60;99.90
10042;DHT22;5061;49.068;12.058;2023-04-25T01:12:52;7.60;99.90
10042;DHT22;5061;49.068;12.058;2023-04-25T01:16:13;7.60;99.90
10042;DHT22;5061;49.068;12.058;2023-04-25T01:19:33;7.60;99.90
10042;DHT22;5061;49.068;12.058;2023-04-25T01:22:55;7.60;99.90
10042;DHT22;5061;49.068;12.058;2023-04-25T01:26:16;7.50;99.90
10042;DHT22;5061;49.068;12.058;2023-04-25T01:29:37;7.50;99.90
10042;DHT22;5061;49.068;12.058;2023-04-25T01:32:59;7.50;99.90
10042;DHT22;5061;49.068;12.058;2023-04-25T01:36:21;7.50;99.90
10042;DHT22;5061;49.068;12.058;2023-04-25T01:39:42;7.50;99.90
10042;DHT22;5061;49.068;12.058;2023-04-25T01:43:03;7.50;99.90
10042;DHT22;5061;49.068;12.058;2023-04-25T01:46:24;7.50;99.90
10042;DHT22;5061;49.068;12.058;2023-04-25T01:49:45;7.50;99.90
10042;DHT22;5061;49.068;12.058;2023-04-25T01:53:06;7.40;99.90
10042;DHT22;5061;49.068;12.058;2023-04-25T01:56:31;7.40;99.90
10042;DHT22;5061;49.068;12.058;2023-04-25T02:00:00;7.50;99.90
10042;DHT22;5061;49.068;12.058;2023-04-25T02:03:21;7.40;99.90
10042;DHT22;5061;49.068;12.058;2023-04-25T02:06:42;7.40;99.90
10042;DHT22;5061;49.068;12.058;2023-04-25T02:10:03;7.40;99.90
10042;DHT22;5061;49.068;12.058;2023-04-25T02:13:23;7.40;99.90
10042;DHT22;5061;49.068;12.058;2023-04-25T02:16:44;7.40;99.90
10042;DHT22;5061;49.068;12.058;2023-04-25T02:20:06;7.40;99.90
10042;DHT22;5061;49.068;12.058;2023-04-25T02:23:28;7.40;99.90
10042;DHT22;5061;49.068;12.058;2023-04-25T02:26:49;7.40;99.90
10042;DHT22;5061;49.068;12.058;2023-04-25T02:30:10;7.40;99.90
10042;DHT22;5061;49.068;12.058;2023-04-25T02:33:30;7.40;99.90
10042;DHT22;5061;49.068;12.058;2023-04-25T02:36:51;7.30;99.90
10042;DHT22;5061;49.068;12.058;2023-04-25T02:40:12;7.30;99.90
10042;DHT22;5061;49.068;12.058;2023-04-25T02:43:32;7.30;99.90
10042;DHT22;5061;49.068;12.058;2023-04-25T02:46:53;7.30;99.90
10042;DHT22;5061;49.068;12.058;2023-04-25T02:50:14;7.30;99.90
10042;DHT22;5061;49.068;12.058;2023-04-25T02:53:34;7.20;99.90
10042;DHT22;5061;49.068;12.058;2023-04-25T02:56:55;7.20;99.90
10042;DHT22;5061;49.068;12.058;2023-04-25T03:00:15;7.10;99.90
10042;DHT22;5061;49.068;12.058;2023-04-25T03:03:36;7.10;99.90
10042;DHT22;5061;49.068;12.058;2023-04-25T03:06:57;7.10;99.90
10042;DHT22;5061;49.068;12.058;2023-04-25T03:10:17;7.10;99.90
10042;DHT22;5061;49.068;12.058;2023-04-25T03:13:38;7.10;99.90
10042;DHT22;5061;49.068;12.058;2023-04-25T03:16:58;7.10;99.90
10042;DHT22;5061;49.068;12.058;2023-04-25T03:20:19;7.10;99.90
10042;DHT22;5061;49.068;12.058;2023-04-25T03:23:40;7.10;99.90
10042;DHT22;5061;49.068;12.058;2023-04-25T03:27:00;7.10;99.90
10042;DHT22;5061;49.068;12.058;2023-04-25T03:30:21;7.10;99.90
10042;DHT22;5061;49.068;12.058;2023-04-25T03:33:42;7.10;99.90
10042;DHT22;5061;49.068;12.058;2023-04-25T03:37:02;7.10;99.90
10042;DHT22;5061;49.068;12.058;2023-04-25T03:40:23;7.00;99.90
10042;DHT22;5061;49.068;12.058;2023-04-25T03:43:44;7.00;99.90
10042;DHT22;5061;49.068;12.058;2023-04-25T03:47:04;7.00;99.90
10042;DHT22;5061;49.068;12.058;2023-04-25T03:50:25;7.00;99.90
10042;DHT22;5061;49.068;12.058;2023-04-25T03:53:46;7.00;99.90
10042;DHT22;5061;49.068;12.058;2023-04-25T03:57:06;7.00;99.90
10042;DHT22;5061;49.068;12.058;2023-04-25T04:00:27;7.00;99.90
10042;DHT22;5061;49.068;12.058;2023-04-25T04:03:48;7.00;99.90
10042;DHT22;5061;49.068;12.058;2023-04-25T04:07:09;7.00;99.90
10042;DHT22;5061;49.068;12.058;2023-04-25T04:10:30;7.00;99.90
10042;DHT22;5061;49.068;12.058;2023-04-25T04:13:51;7.00;99.90
10042;DHT22;5061;49.068;12.058;2023-04-25T04:17:11;7.00;99.90
10042;DHT22;5061;49.068;12.058;2023-04-25T04:20:32;7.00;99.90
10042;DHT22;5061;49.068;12.058;2023-04-25T04:23:53;7.00;99.90
10042;DHT22;5061;49.068;12.058;2023-04-25T04:27:14;6.90;99.90
10042;DHT22;5061;49.068;12.058;2023-04-25T04:30:35;6.90;99.90
10042;DHT22;5061;49.068;12.058;2023-04-25T04:33:57;6.90;99.90
10042;DHT22;5061;49.068;12.058;2023-04-25T04:37:18;6.90;99.90
10042;DHT22;5061;49.068;12.058;2023-04-25T04:40:39;7.00;99.90
10042;DHT22;5061;49.068;12.058;2023-04-25T04:43:59;7.00;99.90
10042;DHT22;5061;49.068;12.058;2023-04-25T04:47:22;7.00;99.90
10042;DHT22;5061;49.068;12.058;2023-04-25T04:50:44;7.10;99.90
10042;DHT22;5061;49.068;12.058;2023-04-25T04:54:07;7.10;99.90
10042;DHT22;5061;49.068;12.058;2023-04-25T04:57:28;7.10;99.90
10042;DHT22;5061;49.068;12.058;2023-04-25T05:00:49;7.10;99.90
10042;DHT22;5061;49.068;12.058;2023-04-25T05:04:10;7.10;99.90
10042;DHT22;5061;49.068;12.058;2023-04-25T05:07:30;7.10;99.90
10042;DHT22;5061;49.068;12.058;2023-04-25T05:10:51;7.10;99.90
10042;DHT22;5061;49.068;12.058;2023-04-25T05:14:12;7.10;99.90
10042;DHT22;5061;49.068;12.058;2023-04-25T05:17:32;7.10;99.90
10042;DHT22;5061;49.068;12.058;2023-04-25T05:20:53;7.10;99.90
10042;DHT22;5061;49.068;12.058;2023-04-25T05:24:14;7.10;99.90
10042;DHT22;5061;49.068;12.058;2023-04-25T05:27:34;7.10;99.90
10042;DHT22;5061;49.068;12.058;2023-04-25T05:30:56;7.00;99.90
10042;DHT22;5061;49.068;12.058;2023-04-25T05:34:17;7.00;99.90
10042;DHT22;5061;49.068;12.058;2023-04-25T05:37:37;7.00;99.90
10042;DHT22;5061;49.068;12.058;2023-04-25T05:40:58;7.00;99.90
10042;DHT22;5061;49.068;12.058;2023-04-25T05:44:19;7.10;99.90
10042;DHT22;5061;49.068;12.058;2023-04-25T05:47:40;7.10;99.90
10042;DHT22;5061;49.068;12.058;2023-04-25T05:51:00;7.20;99.90
10042;DHT22;5061;49.068;12.058;2023-04-25T05:54:21;7.20;99.90
10042;DHT22;5061;49.068;12.058;2023-04-25T05:57:41;7.20;99.90
10042;DHT22;5061;49.068;12.058;2023-04-25T06:01:05;7.30;99.90
10042;DHT22;5061;49.068;12.058;2023-04-25T06:04:25;7.30;99.90
10042;DHT22;5061;49.068;12.058;2023-04-25T06:07:46;7.40;99.90
10042;DHT22;5061;49.068;12.058;2023-04-25T06:11:07;7.40;99.90
10042;DHT22;5061;49.068;12.058;2023-04-25T06:14:27;7.50;99.90
10042;DHT22;5061;49.068;12.058;2023-04-25T06:17:49;7.70;99.90
10042;DHT22;5061;49.068;12.058;2023-04-25T06:21:10;7.80;99.90
10042;DHT22;5061;49.068;12.058;2023-04-25T06:24:30;7.80;99.90
10042;DHT22;5061;49.068;12.058;2023-04-25T06:27:51;7.90;99.90
10042;DHT22;5061;49.068;12.058;2023-04-25T06:31:12;7.90;99.90
10042;DHT22;5061;49.068;12.058;2023-04-25T06:34:32;7.90;99.90
10042;DHT22;5061;49.068;12.058;2023-04-25T06:37:53;7.90;99.90
10042;DHT22;5061;49.068;12.058;2023-04-25T06:41:13;7.90;99.90
10042;DHT22;5061;49.068;12.058;2023-04-25T06:44:34;8.00;99.90
10042;DHT22;5061;49.068;12.058;2023-04-25T06:47:54;8.00;99.90
10042;DHT22;5061;49.068;12.058;2023-04-25T06:51:15;8.10;99.90
10042;DHT22;5061;49.068;12.058;2023-04-25T06:54:36;8.20;99.90
10042;DHT22;5061;49.068;12.058;2023-04-25T06:57:56;8.30;99.90
10042;DHT22;5061;49.068;12.058;2023-04-25T07:01:17;8.30;99.90
10042;DHT22;5061;49.068;12.058;2023-04-25T07:04:37;8.40;99.90
10042;DHT22;5061;49.068;12.058;2023-04-25T07:07:58;8.40;99.90
10042;DHT22;5061;49.068;12.058;2023-04-25T07:11:19;8.50;99.90
10042;DHT22;5061;49.068;12.058;2023-04-25T07:14:40;8.50;99.90
10042;DHT22;5061;49.068;12.058;2023-04-25T07:18:00;8.60;99.90
10042;DHT22;5061;49.068;12.058;2023-04-25T07:21:21;8.70;99.90
10042;DHT22;5061;49.068;12.058;2023-04-25T07:24:41;8.90;99.90
10042;DHT22;5061;49.068;12.058;2023-04-25T07:28:02;9.00;99.90
10042;DHT22;5061;49.068;12.058;2023-04-25T07:31:23;9.10;99.90
10042;DHT22;5061;49.068;12.058;2023-04-25T07:34:44;9.20;99.90
10042;DHT22;5061;49.068;12.058;2023-04-25T07:38:04;9.20;99.90
10042;DHT22;5061;49.068;12.058;2023-04-25T07:41:27;9.20;99.90
10042;DHT22;5061;49.068;12.058;2023-04-25T07:44:47;9.20;99.90
10042;DHT22;5061;49.068;12.058;2023-04-25T07:48:08;9.30;99.90
10042;DHT22;5061;49.068;12.058;2023-04-25T07:51:28;9.20;99.90
10042;DHT22;5061;49.068;12.058;2023-04-25T07:54:49;9.30;99.90
10042;DHT22;5061;49.068;12.058;2023-04-25T07:58:11;9.30;99.90
10042;DHT22;5061;49.068;12.058;2023-04-25T08:01:31;9.30;99.90
10042;DHT22;5061;49.068;12.058;2023-04-25T08:04:52;9.40;99.90
10042;DHT22;5061;49.068;12.058;2023-04-25T08:08:12;9.40;99.90
10042;DHT22;5061;49.068;12.058;2023-04-25T08:11:33;9.40;99.90
10042;DHT22;5061;49.068;12.058;2023-04-25T08:14:54;9.50;99.90
10042;DHT22;5061;49.068;12.058;2023-04-25T08:18:14;9.60;99.90
10042;DHT22;5061;49.068;12.058;2023-04-25T08:21:35;9.60;99.90
10042;DHT22;5061;49.068;12.058;2023-04-25T08:24:55;9.70;99.90
10042;DHT22;5061;49.068;12.058;2023-04-25T08:28:16;9.80;99.90
10042;DHT22;5061;49.068;12.058;2023-04-25T08:31:37;9.80;99.90
10042;DHT22;5061;49.068;12.058;2023-04-25T08:34:58;9.80;99.90
10042;DHT22;5061;49.068;12.058;2023-04-25T08:38:19;9.80;99.90
10042;DHT22;5061;49.068;12.058;2023-04-25T08:41:40;9.80;99.90
10042;DHT22;5061;49.068;12.058;2023-04-25T08:45:02;9.90;99.90
10042;DHT22;5061;49.068;12.058;2023-04-25T08:48:24;9.90;99.90
10042;DHT22;5061;49.068;12.058;2023-04-25T08:51:47;9.90;99.90
10042;DHT22;5061;49.068;12.058;2023-04-25T08:55:09;10.00;99.90
10042;DHT22;5061;49.068;12.058;2023-04-25T08:58:31;10.00;99.90
10042;DHT22;5061;49.068;12.058;2023-04-25T09:01:52;10.00;99.90
10042;DHT22;5061;49.068;12.058;2023-04-25T09:05:14;10.10;99.90
10042;DHT22;5061;49.068;12.058;2023-04-25T09:08:36;10.20;99.90
10042;DHT22;5061;49.068;12.058;2023-04-25T09:11:57;10.20;99.90
10042;DHT22;5061;49.068;12.058;2023-04-25T09:15:18;10.20;99.90
10042;DHT22;5061;49.068;12.058;2023-04-25T09:18:39;10.20;99.90
10042;DHT22;5061;49.068;12.058;2023-04-25T09:22:01;10.10;99.90
10042;DHT22;5061;49.068;12.058;2023-04-25T09:25:24;10.00;99.90
10042;DHT22;5061;49.068;12.058;2023-04-25T09:28:46;9.80;99.90
10042;DHT22;5061;49.068;12.058;2023-04-25T09:32:34;9.70;99.90
10042;DHT22;5061;49.068;12.058;2023-04-25T09:36:04;9.70;99.90
10042;DHT22;5061;49.068;12.058;2023-04-25T09:39:28;9.90;99.90
10042;DHT22;5061;49.068;12.058;2023-04-25T09:42:49;9.90;99.90
10042;DHT22;5061;49.068;12.058;2023-04-25T09:46:10;9.90;99.90
10042;DHT22;5061;49.068;12.058;2023-04-25T09:49:31;9.90;99.90
10042;DHT22;5061;49.068;12.058;2023-04-25T09:53:05;9.80;99.90
10042;DHT22;5061;49.068;12.058;2023-04-25T09:56:27;9.80;99.90
10042;DHT22;5061;49.068;12.058;2023-04-25T09:59:51;9.80;99.90
10042;DHT22;5061;49.068;12.058;2023-04-25T10:03:12;9.90;99.90
10042;DHT22;5061;49.068;12.058;2023-04-25T10:06:34;10.00;99.90
10042;DHT22;5061;49.068;12.058;2023-04-25T10:10:00;9.90;99.90
10042;DHT22;5061;49.068;12.058;2023-04-25T10:13:23;9.90;99.90
10042;DHT22;5061;49.068;12.058;2023-04-25T10:16:45;10.00;99.90
10042;DHT22;5061;49.068;12.058;2023-04-25T10:20:06;10.00;99.90
10042;DHT22;5061;49.068;12.058;2023-04-25T10:23:31;10.00;99.90
10042;DHT22;5061;49.068;12.058;2023-04-25T10:26:52;9.80;99.90
10042;DHT22;5061;49.068;12.058;2023-04-25T10:30:14;9.80;99.90
10042;DHT22;5061;49.068;12.058;2023-04-25T10:33:37;9.70;99.90
10042;DHT22;5061;49.068;12.058;2023-04-25T10:36:58;9.70;99.90
10042;DHT22;5061;49.068;12.058;2023-04-25T10:40:21;9.60;99.90
10042;DHT22;5061;49.068;12.058;2023-04-25T10:43:44;9.70;99.90
10042;DHT22;5061;49.068;12.058;2023-04-25T10:47:07;9.90;99.90
10042;DHT22;5061;49.068;12.058;2023-04-25T10:50:38;10.00;99.90
10042;DHT22;5061;49.068;12.058;2023-04-25T10:54:04;10.00;99.90
10042;DHT22;5061;49.068;12.058;2023-04-25T11:00:51;10.30;99.90
10042;DHT22;5061;49.068;12.058;2023-04-25T11:07:53;10.40;99.90
10042;DHT22;5061;49.068;12.058;2023-04-25T11:11:17;10.50;99.90
10042;DHT22;5061;49.068;12.058;2023-04-25T11:14:39;10.60;99.90
10042;DHT22;5061;49.068;12.058;2023-04-25T11:18:00;10.60;99.90
10042;DHT22;5061;49.068;12.058;2023-04-25T11:21:20;10.70;99.90
10042;DHT22;5061;49.068;12.058;2023-04-25T11:24:41;10.80;99.90
10042;DHT22;5061;49.068;12.058;2023-04-25T11:28:03;10.90;99.90
10042;DHT22;5061;49.068;12.058;2023-04-25T11:31:25;11.00;99.90
10042;DHT22;5061;49.068;12.058;2023-04-25T11:34:46;11.20;99.90
10042;DHT22;5061;49.068;12.058;2023-04-25T11:38:07;11.20;99.90
10042;DHT22;5061;49.068;12.058;2023-04-25T11:41:28;11.20;99.50
10042;DHT22;5061;49.068;12.058;2023-04-25T11:44:51;11.20;99.50
10042;DHT22;5061;49.068;12.058;2023-04-25T11:48:12;11.20;98.00
10042;DHT22;5061;49.068;12.058;2023-04-25T11:51:45;11.20;98.90
10042;DHT22;5061;49.068;12.058;2023-04-25T11:55:10;11.10;99.40
10042;DHT22;5061;49.068;12.058;2023-04-25T11:58:33;11.30;99.10
10042;DHT22;5061;49.068;12.058;2023-04-25T12:02:24;11.50;99.60
10042;DHT22;5061;49.068;12.058;2023-04-25T12:05:46;11.70;98.70
10042;DHT22;5061;49.068;12.058;2023-04-25T12:09:08;11.70;99.30
10042;DHT22;5061;49.068;12.058;2023-04-25T12:12:33;11.60;98.70
10042;DHT22;5061;49.068;12.058;2023-04-25T12:15:54;11.50;98.80
10042;DHT22;5061;49.068;12.058;2023-04-25T12:19:16;11.30;98.30
10042;DHT22;5061;49.068;12.058;2023-04-25T12:22:37;11.20;98.40
10042;DHT22;5061;49.068;12.058;2023-04-25T12:25:58;11.20;98.40
10042;DHT22;5061;49.068;12.058;2023-04-25T12:29:23;11.10;98.60
10042;DHT22;5061;49.068;12.058;2023-04-25T12:32:44;11.20;98.40
10042;DHT22;5061;49.068;12.058;2023-04-25T12:36:05;11.40;98.60
10042;DHT22;5061;49.068;12.058;2023-04-25T12:39:29;11.70;97.00
10042;DHT22;5061;49.068;12.058;2023-04-25T12:42:50;11.80;97.10
10042;DHT22;5061;49.068;12.058;2023-04-25T12:46:11;11.80;96.80
10042;DHT22;5061;49.068;12.058;2023-04-25T12:49:32;11.70;96.60
10042;DHT22;5061;49.068;12.058;2023-04-25T12:52:52;11.70;96.10
10042;DHT22;5061;49.068;12.058;2023-04-25T12:56:16;11.60;95.40
10042;DHT22;5061;49.068;12.058;2023-04-25T12:59:36;11.50;96.00
10042;DHT22;5061;49.068;12.058;2023-04-25T13:02:57;11.50;96.50
10042;DHT22;5061;49.068;12.058;2023-04-25T13:06:19;11.50;96.30
10042;DHT22;5061;49.068;12.058;2023-04-25T13:09:40;11.40;96.10
10042;DHT22;5061;49.068;12.058;2023-04-25T13:13:00;11.40;96.10
10042;DHT22;5061;49.068;12.058;2023-04-25T13:16:21;11.30;96.20
10042;DHT22;5061;49.068;12.058;2023-04-25T13:19:42;11.20;95.80
10042;DHT22;5061;49.068;12.058;2023-04-25T13:23:03;11.20;95.20
10042;DHT22;5061;49.068;12.058;2023-04-25T13:26:23;11.10;95.70
10042;DHT22;5061;49.068;12.058;2023-04-25T13:29:44;11.00;95.90
10042;DHT22;5061;49.068;12.058;2023-04-25T13:33:05;10.90;95.40
10042;DHT22;5061;49.068;12.058;2023-04-25T13:36:26;10.80;95.50
10042;DHT22;5061;49.068;12.058;2023-04-25T13:39:48;10.80;95.80
10042;DHT22;5061;49.068;12.058;2023-04-25T13:43:08;10.80;95.80
10042;DHT22;5061;49.068;12.058;2023-04-25T13:46:29;10.70;95.50
10042;DHT22;5061;49.068;12.058;2023-04-25T13:49:50;10.60;95.70
10042;DHT22;5061;49.068;12.058;2023-04-25T13:53:10;10.50;96.00
10042;DHT22;5061;49.068;12.058;2023-04-25T13:56:32;10.50;96.30
10042;DHT22;5061;49.068;12.058;2023-04-25T13:59:53;10.50;96.40
10042;DHT22;5061;49.068;12.058;2023-04-25T14:03:17;10.50;96.40
10042;DHT22;5061;49.068;12.058;2023-04-25T14:06:47;10.60;96.40
10042;DHT22;5061;49.068;12.058;2023-04-25T14:10:12;10.70;96.60
10042;DHT22;5061;49.068;12.058;2023-04-25T14:13:35;10.90;96.50
10042;DHT22;5061;49.068;12.058;2023-04-25T14:16:56;11.20;96.50
10042;DHT22;5061;49.068;12.058;2023-04-25T14:20:18;11.50;96.40
10042;DHT22;5061;49.068;12.058;2023-04-25T14:23:44;11.90;96.20
10042;DHT22;5061;49.068;12.058;2023-04-25T14:27:08;12.30;95.30
10042;DHT22;5061;49.068;12.058;2023-04-25T14:30:35;12.60;95.40
10042;DHT22;5061;49.068;12.058;2023-04-25T14:33:58;12.80;94.60
10042;DHT22;5061;49.068;12.058;2023-04-25T14:37:18;12.80;94.30
10042;DHT22;5061;49.068;12.058;2023-04-25T14:40:39;12.60;94.00
10042;DHT22;5061;49.068;12.058;2023-04-25T14:43:59;12.50;94.10
10042;DHT22;5061;49.068;12.058;2023-04-25T14:47:20;12.50;93.60
10042;DHT22;5061;49.068;12.058;2023-04-25T14:50:41;12.30;93.40
10042;DHT22;5061;49.068;12.058;2023-04-25T14:54:01;12.20;93.70
10042;DHT22;5061;49.068;12.058;2023-04-25T14:57:22;12.00;93.50
10042;DHT22;5061;49.068;12.058;2023-04-25T15:00:43;12.00;93.60
10042;DHT22;5061;49.068;12.058;2023-04-25T15:04:04;11.80;92.90
10042;DHT22;5061;49.068;12.058;2023-04-25T15:07:25;11.70;92.80
10042;DHT22;5061;49.068;12.058;2023-04-25T15:10:46;11.70;93.10
10042;DHT22;5061;49.068;12.058;2023-04-25T15:14:07;11.60;92.50
10042;DHT22;5061;49.068;12.058;2023-04-25T15:17:27;11.60;92.40
10042;DHT22;5061;49.068;12.058;2023-04-25T15:20:52;11.50;92.00
10042;DHT22;5061;49.068;12.058;2023-04-25T15:24:12;11.50;91.70
10042;DHT22;5061;49.068;12.058;2023-04-25T15:27:39;11.50;92.10
10042;DHT22;5061;49.068;12.058;2023-04-25T15:31:04;11.40;92.30
10042;DHT22;5061;49.068;12.058;2023-04-25T15:34:24;11.40;92.50
10042;DHT22;5061;49.068;12.058;2023-04-25T15:37:45;11.30;92.40
10042;DHT22;5061;49.068;12.058;2023-04-25T15:41:05;11.20;92.40
10042;DHT22;5061;49.068;12.058;2023-04-25T15:44:26;11.10;92.60
10042;DHT22;5061;49.068;12.058;2023-04-25T15:47:47;11.10;92.80
10042;DHT22;5061;49.068;12.058;2023-04-25T15:51:07;11.10;92.90
10042;DHT22;5061;49.068;12.058;2023-04-25T15:54:29;11.00;93.00
10042;DHT22;5061;49.068;12.058;2023-04-25T15:57:49;10.90;93.20
10042;DHT22;5061;49.068;12.058;2023-04-25T16:01:10;10.90;93.00
10042;DHT22;5061;49.068;12.058;2023-04-25T16:04:31;10.80;93.00
10042;DHT22;5061;49.068;12.058;2023-04-25T16:07:54;10.70;93.10
10042;DHT22;5061;49.068;12.058;2023-04-25T16:11:15;10.60;93.10
10042;DHT22;5061;49.068;12.058;2023-04-25T16:14:36;10.60;92.80
10042;DHT22;5061;49.068;12.058;2023-04-25T16:17:56;10.50;93.00
10042;DHT22;5061;49.068;12.058;2023-04-25T16:21:17;10.50;93.10
10042;DHT22;5061;49.068;12.058;2023-04-25T16:24:38;10.50;92.90
10042;DHT22;5061;49.068;12.058;2023-04-25T16:27:59;10.50;92.80
10042;DHT22;5061;49.068;12.058;2023-04-25T16:31:19;10.50;93.20
10042;DHT22;5061;49.068;12.058;2023-04-25T16:34:40;10.50;93.00
10042;DHT22;5061;49.068;12.058;2023-04-25T16:38:01;10.40;92.90
10042;DHT22;5061;49.068;12.058;2023-04-25T16:41:22;10.40;93.00
10042;DHT22;5061;49.068;12.058;2023-04-25T16:44:44;10.30;93.00
10042;DHT22;5061;49.068;12.058;2023-04-25T16:48:05;10.20;93.00
10042;DHT22;5061;49.068;12.058;2023-04-25T16:51:25;10.10;93.00
10042;DHT22;5061;49.068;12.058;2023-04-25T16:54:49;10.10;93.20
10042;DHT22;5061;49.068;12.058;2023-04-25T16:58:10;10.00;93.20
10042;DHT22;5061;49.068;12.058;2023-04-25T17:01:34;10.00;93.40
10042;DHT22;5061;49.068;12.058;2023-04-25T17:04:55;10.00;93.30
10042;DHT22;5061;49.068;12.058;2023-04-25T17:08:16;9.90;93.90
10042;DHT22;5061;49.068;12.058;2023-04-25T17:11:36;9.90;94.10
10042;DHT22;5061;49.068;12.058;2023-04-25T17:14:57;9.80;94.10
10042;DHT22;5061;49.068;12.058;2023-04-25T17:18:20;9.80;94.20
10042;DHT22;5061;49.068;12.058;2023-04-25T17:21:41;9.80;94.30
10042;DHT22;5061;49.068;12.058;2023-04-25T17:25:02;9.80;94.30
10042;DHT22;5061;49.068;12.058;2023-04-25T17:28:23;9.70;94.40
10042;DHT22;5061;49.068;12.058;2023-04-25T17:31:44;9.70;94.40
10042;DHT22;5061;49.068;12.058;2023-04-25T17:35:05;9.70;94.40
10042;DHT22;5061;49.068;12.058;2023-04-25T17:38:25;9.60;94.50
10042;DHT22;5061;49.068;12.058;2023-04-25T17:41:47;9.60;94.50
10042;DHT22;5061;49.068;12.058;2023-04-25T17:45:08;9.60;94.50
10042;DHT22;5061;49.068;12.058;2023-04-25T17:48:28;9.50;94.60
10042;DHT22;5061;49.068;12.058;2023-04-25T17:51:51;9.50;94.70
10042;DHT22;5061;49.068;12.058;2023-04-25T17:55:11;9.40;94.70
10042;DHT22;5061;49.068;12.058;2023-04-25T17:58:32;9.30;94.80
10042;DHT22;5061;49.068;12.058;2023-04-25T18:01:52;9.20;94.80
10042;DHT22;5061;49.068;12.058;2023-04-25T18:05:13;9.10;94.90
10042;DHT22;5061;49.068;12.058;2023-04-25T18:08:34;9.10;95.00
10042;DHT22;5061;49.068;12.058;2023-04-25T18:11:55;9.00;95.10
10042;DHT22;5061;49.068;12.058;2023-04-25T18:15:16;9.00;95.20
10042;DHT22;5061;49.068;12.058;2023-04-25T18:18:36;8.90;95.20
10042;DHT22;5061;49.068;12.058;2023-04-25T18:21:57;8.80;95.30
10042;DHT22;5061;49.068;12.058;2023-04-25T18:25:18;8.80;95.40
10042;DHT22;5061;49.068;12.058;2023-04-25T18:28:38;8.80;95.50
10042;DHT22;5061;49.068;12.058;2023-04-25T18:32:00;8.70;95.50
10042;DHT22;5061;49.068;12.058;2023-04-25T18:35:21;8.60;95.60
10042;DHT22;5061;49.068;12.058;2023-04-25T18:38:41;8.60;95.70
10042;DHT22;5061;49.068;12.058;2023-04-25T18:42:02;8.50;95.80
10042;DHT22;5061;49.068;12.058;2023-04-25T18:45:26;8.40;95.80
10042;DHT22;5061;49.068;12.058;2023-04-25T18:48:47;8.40;95.90
10042;DHT22;5061;49.068;12.058;2023-04-25T18:52:08;8.30;96.10
10042;DHT22;5061;49.068;12.058;2023-04-25T18:55:33;8.30;96.20
10042;DHT22;5061;49.068;12.058;2023-04-25T18:58:54;8.20;96.30
10042;DHT22;5061;49.068;12.058;2023-04-25T19:02:16;8.20;96.40
10042;DHT22;5061;49.068;12.058;2023-04-25T19:05:37;8.20;96.50
10042;DHT22;5061;49.068;12.058;2023-04-25T19:08:58;8.20;96.60
10042;DHT22;5061;49.068;12.058;2023-04-25T19:12:19;8.20;96.70
10042;DHT22;5061;49.068;12.058;2023-04-25T19:15:41;8.10;96.70
10042;DHT22;5061;49.068;12.058;2023-04-25T19:19:01;8.10;96.80
10042;DHT22;5061;49.068;12.058;2023-04-25T19:22:25;8.10;96.90
10042;DHT22;5061;49.068;12.058;2023-04-25T19:25:46;8.10;96.90
10042;DHT22;5061;49.068;12.058;2023-04-25T19:29:09;8.10;96.90
10042;DHT22;5061;49.068;12.058;2023-04-25T19:32:31;8.00;97.00
10042;DHT22;5061;49.068;12.058;2023-04-25T19:35:52;8.00;97.00
10042;DHT22;5061;49.068;12.058;2023-04-25T19:39:12;7.90;97.00
10042;DHT22;5061;49.068;12.058;2023-04-25T19:42:33;7.90;97.10
10042;DHT22;5061;49.068;12.058;2023-04-25T19:45:53;7.80;97.10
10042;DHT22;5061;49.068;12.058;2023-04-25T19:49:14;7.80;97.20
10042;DHT22;5061;49.068;12.058;2023-04-25T19:52:36;7.70;97.30
10042;DHT22;5061;49.068;12.058;2023-04-25T19:55:57;7.70;97.40
10042;DHT22;5061;49.068;12.058;2023-04-25T19:59:17;7.60;97.40
10042;DHT22;5061;49.068;12.058;2023-04-25T20:02:41;7.60;97.60
10042;DHT22;5061;49.068;12.058;2023-04-25T20:06:05;7.50;97.80
10042;DHT22;5061;49.068;12.058;2023-04-25T20:09:26;7.40;97.70
10042;DHT22;5061;49.068;12.058;2023-04-25T20:12:46;7.30;97.80
10042;DHT22;5061;49.068;12.058;2023-04-25T20:16:08;7.20;98.20
10042;DHT22;5061;49.068;12.058;2023-04-25T20:19:28;7.10;98.10
10042;DHT22;5061;49.068;12.058;2023-04-25T20:22:49;6.90;98.60
10042;DHT22;5061;49.068;12.058;2023-04-25T20:26:11;6.80;98.60
10042;DHT22;5061;49.068;12.058;2023-04-25T20:29:32;6.70;99.30
10042;DHT22;5061;49.068;12.058;2023-04-25T20:32:53;6.60;99.70
10042;DHT22;5061;49.068;12.058;2023-04-25T20:36:13;6.60;99.90
10042;DHT22;5061;49.068;12.058;2023-04-25T20:39:34;6.50;99.90
10042;DHT22;5061;49.068;12.058;2023-04-25T20:42:55;6.40;99.90
10042;DHT22;5061;49.068;12.058;2023-04-25T20:46:20;6.40;99.90
10042;DHT22;5061;49.068;12.058;2023-04-25T20:49:46;6.40;99.90
10042;DHT22;5061;49.068;12.058;2023-04-25T20:53:07;6.40;99.90
10042;DHT22;5061;49.068;12.058;2023-04-25T20:56:28;6.40;99.90
10042;DHT22;5061;49.068;12.058;2023-04-25T20:59:49;6.40;99.90
10042;DHT22;5061;49.068;12.058;2023-04-25T21:03:10;6.40;99.90
10042;DHT22;5061;49.068;12.058;2023-04-25T21:06:32;6.40;99.90
10042;DHT22;5061;49.068;12.058;2023-04-25T21:09:53;6.40;99.90
10042;DHT22;5061;49.068;12.058;2023-04-25T21:13:14;6.40;99.90
10042;DHT22;5061;49.068;12.058;2023-04-25T21:16:35;6.40;99.90
10042;DHT22;5061;49.068;12.058;2023-04-25T21:19:58;6.40;99.90
10042;DHT22;5061;49.068;12.058;2023-04-25T21:23:18;6.50;99.90
10042;DHT22;5061;49.068;12.058;2023-04-25T21:26:39;6.50;99.90
10042;DHT22;5061;49.068;12.058;2023-04-25T21:29:59;6.60;99.90
10042;DHT22;5061;49.068;12.058;2023-04-25T21:33:20;6.60;99.90